Time;durP1;ratioP1;P1;durP2;ratioP2;P2;SDS_P1;SDS_P2;PMS_P1;PMS_P2;Temp;Humidity;BMP_temperature;BMP_pressure;BME280_temperature;BME280_humidity;BME280_pressure;Samples;Min_cycle;Max_cycle;Signal;HPM_P1;HPM_P2
2023/07/08 00:01:20;;;;;;;7.07;3.33;;;25.00;54.10;;;;;;4972184;28;20050;-51
2023/07/08 00:03:46;;;;;;;7.72;2.88;;;24.80;54.60;;;;;;4974238;28;20026;-54
2023/07/08 00:06:25;;;;;;;10.88;3.33;;;24.60;55.20;;;;;;4989958;28;20058;-54
2023/07/08 00:08:51;;;;;;;9.27;3.15;;;24.60;55.60;;;;;;4974868;28;20084;-53
2023/07/08 00:11:17;;;;;;;6.15;3.08;;;24.40;55.60;;;;;;4989766;28;20038;-55
2023/07/08 00:13:44;;;;;;;6.70;2.92;;;24.50;56.10;;;;;;4958039;28;20035;-55
2023/07/08 00:16:12;;;;;;;6.38;2.80;;;24.50;56.50;;;;;;4972396;28;20030;-55
2023/07/08 00:18:38;;;;;;;6.55;2.58;;;24.40;56.70;;;;;;4991267;28;20340;-56
2023/07/08 00:21:14;;;;;;;10.23;2.97;;;24.40;57.10;;;;;;4989451;28;20115;-55
2023/07/08 00:23:51;;;;;;;9.43;3.67;;;24.30;57.30;;;;;;4991290;28;20025;-54
2023/07/08 00:26:25;;;;;;;6.15;2.50;;;24.20;56.60;;;;;;4989278;28;20042;-54
2023/07/08 00:28:52;;;;;;;7.10;3.00;;;24.20;57.10;;;;;;4974167;28;20039;-51
2023/07/08 00:31:23;;;;;;;6.68;2.97;;;24.20;57.70;;;;;;4972343;28;20037;-55
2023/07/08 00:33:50;;;;;;;9.48;3.33;;;24.10;57.70;;;;;;4991025;28;20030;-50
2023/07/08 00:36:17;;;;;;;7.60;3.28;;;24.10;58.40;;;;;;4989192;28;20138;-52
2023/07/08 00:38:45;;;;;;;5.95;2.63;;;24.10;58.50;;;;;;4973890;28;20061;-56
2023/07/08 00:41:41;;;;;;;8.68;3.08;;;23.80;58.80;;;;;;4972570;28;20109;-57
2023/07/08 00:44:11;;;;;;;8.48;3.38;;;23.70;59.40;;;;;;4974197;28;20038;-57
2023/07/08 00:46:58;;;;;;;7.95;2.80;;;23.60;59.60;;;;;;4989578;28;20072;-55
2023/07/08 00:49:45;;;;;;;7.20;2.80;;;23.40;60.20;;;;;;4967853;28;20472;-56
2023/07/08 00:52:30;;;;;;;9.70;3.50;;;23.30;61.30;;;;;;4972249;28;20474;-57
2023/07/08 00:55:02;;;;;;;5.70;2.75;;;23.20;61.50;;;;;;4990212;28;20030;-53
2023/07/08 00:57:35;;;;;;;7.28;3.80;;;23.10;60.40;;;;;;4972424;28;20126;-55
2023/07/08 01:00:07;;;;;;;6.90;3.15;;;23.20;60.20;;;;;;4990881;28;20069;-55
2023/07/08 01:02:41;;;;;;;10.32;3.78;;;23.20;60.80;;;;;;4988455;28;20414;-56
2023/07/08 01:05:16;;;;;;;8.60;3.50;;;23.10;61.60;;;;;;4985916;28;20026;-57
2023/07/08 01:07:50;;;;;;;8.07;3.17;;;23.00;62.50;;;;;;4980962;28;20037;-55
2023/07/08 01:10:25;;;;;;;8.05;2.85;;;23.00;60.20;;;;;;4982507;28;20057;-57
2023/07/08 01:12:59;;;;;;;6.05;2.75;;;23.00;59.10;;;;;;4970682;28;20393;-56
2023/07/08 01:15:35;;;;;;;8.43;2.63;;;23.10;58.40;;;;;;4962348;28;20080;-56
2023/07/08 01:18:02;;;;;;;7.43;3.28;;;23.20;58.90;;;;;;4977491;28;20113;-54
2023/07/08 01:20:28;;;;;;;7.82;2.20;;;23.00;61.90;;;;;;4973373;28;20501;-55
2023/07/08 01:22:53;;;;;;;12.82;3.35;;;23.00;61.20;;;;;;4970982;28;20031;-58
2023/07/08 01:25:19;;;;;;;7.57;3.20;;;23.00;62.60;;;;;;4973032;28;20046;-57
2023/07/08 01:27:51;;;;;;;6.32;3.63;;;22.90;62.80;;;;;;4971131;28;20449;-58
2023/07/08 01:30:17;;;;;;;9.13;3.30;;;22.90;61.00;;;;;;4955027;28;20502;-57
2023/07/08 01:32:52;;;;;;;8.90;3.05;;;23.10;60.10;;;;;;4968503;28;20035;-57
2023/07/08 01:35:18;;;;;;;7.57;3.40;;;23.20;60.40;;;;;;4954483;28;20030;-60
2023/07/08 01:37:58;;;;;;;8.48;3.30;;;23.30;61.00;;;;;;4986473;28;20035;-53
2023/07/08 01:40:30;;;;;;;11.18;3.83;;;23.20;61.70;;;;;;4957638;28;20033;-56
2023/07/08 01:42:57;;;;;;;11.18;3.92;;;23.20;62.80;;;;;;4971271;28;20167;-57
2023/07/08 01:45:29;;;;;;;7.72;3.20;;;23.10;63.50;;;;;;4990539;28;20110;-58
2023/07/08 01:48:02;;;;;;;6.28;3.00;;;23.10;64.30;;;;;;4973892;28;20384;-57
2023/07/08 01:50:30;;;;;;;7.50;3.38;;;23.00;65.50;;;;;;4977246;28;20034;-56
2023/07/08 01:53:01;;;;;;;8.48;3.53;;;22.90;66.90;;;;;;4974638;28;20045;-57
2023/07/08 01:55:30;;;;;;;10.60;3.67;;;22.90;67.90;;;;;;4977079;28;20034;-58
2023/07/08 01:57:56;;;;;;;10.43;4.75;;;22.70;69.60;;;;;;4992147;28;20406;-57
2023/07/08 02:00:22;;;;;;;8.32;3.22;;;22.60;70.70;;;;;;4994057;28;20038;-57
2023/07/08 02:02:50;;;;;;;5.55;3.33;;;22.60;71.90;;;;;;4973765;28;20038;-58
2023/07/08 02:05:16;;;;;;;7.78;4.13;;;22.50;72.90;;;;;;4994026;28;20046;-57
2023/07/08 02:07:42;;;;;;;13.88;3.80;;;22.50;73.60;;;;;;4974286;28;20173;-56
2023/07/08 02:10:08;;;;;;;7.75;3.17;;;22.30;74.70;;;;;;4993513;28;20022;-57
2023/07/08 02:12:34;;;;;;;9.43;4.20;;;22.20;75.50;;;;;;4991388;28;20030;-58
2023/07/08 02:15:02;;;;;;;8.45;3.30;;;22.20;75.80;;;;;;4993619;28;20038;-57
2023/07/08 02:17:28;;;;;;;10.38;4.05;;;22.00;77.00;;;;;;4974329;28;20105;-57
2023/07/08 02:19:55;;;;;;;9.35;3.88;;;22.00;77.20;;;;;;4992063;28;20061;-56
2023/07/08 02:22:21;;;;;;;9.73;3.88;;;22.00;77.80;;;;;;4991193;28;20455;-58
2023/07/08 02:24:47;;;;;;;9.75;4.00;;;21.90;78.20;;;;;;4993708;28;20031;-58
2023/07/08 02:27:14;;;;;;;11.43;4.47;;;21.80;78.70;;;;;;4991549;28;20109;-56
2023/07/08 02:29:40;;;;;;;11.48;3.83;;;21.80;79.50;;;;;;4993327;28;20065;-58
2023/07/08 02:32:06;;;;;;;11.02;4.63;;;21.70;80.00;;;;;;4990192;28;20037;-57
2023/07/08 02:34:32;;;;;;;8.60;3.97;;;21.60;80.50;;;;;;4993216;28;20034;-57
2023/07/08 02:36:58;;;;;;;14.52;4.32;;;21.50;81.40;;;;;;4991576;28;20030;-59
2023/07/08 02:39:24;;;;;;;9.70;3.45;;;21.50;82.00;;;;;;4993340;28;20126;-57
2023/07/08 02:41:50;;;;;;;11.23;3.95;;;21.50;82.60;;;;;;4991024;28;20504;-58
2023/07/08 02:44:15;;;;;;;9.90;3.47;;;21.50;83.10;;;;;;4992640;28;20089;-58
2023/07/08 02:46:41;;;;;;;9.52;3.83;;;21.30;84.00;;;;;;4989955;28;20069;-59
2023/07/08 02:49:07;;;;;;;10.18;4.55;;;21.30;85.30;;;;;;4992843;28;20103;-58
2023/07/08 02:51:33;;;;;;;7.57;3.83;;;21.20;85.30;;;;;;4991139;28;20049;-58
2023/07/08 02:53:59;;;;;;;11.80;4.07;;;21.10;85.90;;;;;;4975397;28;20026;-56
2023/07/08 02:56:26;;;;;;;8.07;3.78;;;21.10;86.80;;;;;;4991357;28;20038;-56
2023/07/08 02:58:53;;;;;;;9.95;3.55;;;21.10;87.20;;;;;;4992784;28;20133;-54
2023/07/08 03:01:19;;;;;;;9.73;3.75;;;20.90;87.90;;;;;;4965222;28;20142;-55
2023/07/08 03:03:48;;;;;;;10.77;4.20;;;20.70;89.60;;;;;;4983556;28;20526;-54
2023/07/08 03:06:14;;;;;;;10.52;3.72;;;20.60;90.70;;;;;;4973256;28;20088;-58
2023/07/08 03:08:40;;;;;;;11.20;4.18;;;20.70;90.60;;;;;;4974937;28;20042;-56
2023/07/08 03:11:08;;;;;;;9.55;3.53;;;20.60;91.30;;;;;;4991010;28;20027;-59
2023/07/08 03:13:34;;;;;;;10.48;3.90;;;20.60;91.80;;;;;;4958725;28;20084;-58
2023/07/08 03:16:09;;;;;;;7.60;3.20;;;20.60;92.00;;;;;;4990830;28;20034;-58
2023/07/08 03:18:38;;;;;;;12.65;5.18;;;20.40;92.80;;;;;;4992321;28;20015;-58
2023/07/08 03:21:05;;;;;;;9.77;3.13;;;20.50;92.90;;;;;;4989909;28;20499;-56
2023/07/08 03:23:31;;;;;;;13.70;4.05;;;20.50;93.00;;;;;;4991783;28;20022;-59
2023/07/08 03:25:57;;;;;;;9.30;3.67;;;20.60;93.10;;;;;;4990428;28;20038;-58
2023/07/08 03:28:22;;;;;;;7.70;3.63;;;20.70;93.10;;;;;;4974528;28;20131;-59
2023/07/08 03:30:52;;;;;;;12.18;3.97;;;20.60;93.40;;;;;;4990389;28;20030;-56
2023/07/08 03:33:18;;;;;;;6.50;3.13;;;20.70;93.30;;;;;;4991673;28;20037;-56
2023/07/08 03:35:45;;;;;;;11.35;3.90;;;20.70;93.20;;;;;;4991142;28;20296;-58
2023/07/08 03:38:11;;;;;;;7.03;3.45;;;20.80;93.00;;;;;;4989500;28;20434;-58
2023/07/08 03:40:36;;;;;;;7.25;3.67;;;20.90;92.80;;;;;;4991774;28;20035;-57
2023/07/08 03:43:02;;;;;;;8.00;3.42;;;21.00;92.70;;;;;;4989719;28;20557;-55
2023/07/08 03:45:28;;;;;;;11.30;4.47;;;21.10;92.70;;;;;;4992175;28;20038;-58
2023/07/08 03:47:54;;;;;;;8.43;3.60;;;21.10;92.70;;;;;;4989857;28;20042;-58
2023/07/08 03:50:23;;;;;;;9.07;4.00;;;21.20;92.70;;;;;;4991710;28;20026;-58
2023/07/08 03:52:52;;;;;;;9.60;4.03;;;21.20;92.90;;;;;;4988105;28;20099;-58
2023/07/08 03:55:19;;;;;;;9.57;4.30;;;21.20;92.90;;;;;;4955173;28;20118;-58
2023/07/08 03:57:45;;;;;;;10.73;3.53;;;21.20;93.00;;;;;;4970214;28;20471;-56
2023/07/08 04:00:13;;;;;;;10.52;4.25;;;21.20;93.10;;;;;;4991461;28;20510;-55
2023/07/08 04:02:41;;;;;;;8.95;4.00;;;21.20;93.10;;;;;;5018924;23;20065;-60
2023/07/08 04:05:16;;;;;;;7.57;3.78;;;21.20;93.40;;;;;;4993781;28;20041;-60
2023/07/08 04:07:42;;;;;;;8.48;4.07;;;21.10;93.10;;;;;;4994498;28;20025;-59
2023/07/08 04:10:09;;;;;;;9.13;3.85;;;20.90;93.40;;;;;;5010555;28;20022;-60
2023/07/08 04:12:35;;;;;;;11.50;3.97;;;20.80;93.90;;;;;;5020717;28;20123;-59
2023/07/08 04:15:02;;;;;;;9.98;3.90;;;20.80;94.00;;;;;;5011305;28;20034;-59
2023/07/08 04:17:28;;;;;;;9.00;3.78;;;20.80;94.10;;;;;;5010524;28;20032;-59
2023/07/08 04:19:56;;;;;;;7.53;3.53;;;20.80;94.40;;;;;;5011088;28;20029;-60
2023/07/08 04:22:23;;;;;;;9.73;4.10;;;20.70;94.60;;;;;;5010175;28;20393;-59
2023/07/08 04:24:50;;;;;;;10.88;4.55;;;20.70;94.80;;;;;;5010896;28;20018;-60
2023/07/08 04:27:17;;;;;;;12.65;4.05;;;20.80;94.90;;;;;;5010652;28;20073;-59
2023/07/08 04:29:44;;;;;;;11.85;4.50;;;20.80;94.80;;;;;;5010859;28;20077;-60
2023/07/08 04:32:10;;;;;;;8.90;4.15;;;20.80;94.80;;;;;;5010110;28;20033;-60
2023/07/08 04:34:36;;;;;;;9.85;3.83;;;20.70;94.70;;;;;;5010249;28;20541;-59
2023/07/08 04:37:04;;;;;;;10.50;3.88;;;20.70;94.90;;;;;;4986155;28;20048;-60
2023/07/08 04:39:30;;;;;;;9.38;3.47;;;20.50;95.40;;;;;;5009106;28;20053;-59
2023/07/08 04:41:56;;;;;;;9.05;4.30;;;20.30;95.50;;;;;;5010121;28;20080;-59
2023/07/08 04:44:24;;;;;;;11.20;3.72;;;20.40;95.70;;;;;;5010067;28;20034;-60
2023/07/08 04:46:55;;;;;;;8.05;4.13;;;20.50;95.60;;;;;;5008757;28;20036;-59
2023/07/08 04:49:22;;;;;;;10.35;3.80;;;20.40;95.70;;;;;;5009474;28;20462;-59
2023/07/08 04:51:53;;;;;;;7.75;3.40;;;20.30;96.20;;;;;;5010055;28;20061;-61
2023/07/08 04:54:18;;;;;;;10.20;3.35;;;20.50;96.10;;;;;;5002415;28;20037;-61
2023/07/08 04:56:48;;;;;;;11.60;4.25;;;20.50;95.90;;;;;;5010145;28;20096;-61
2023/07/08 04:59:23;;;;;;;11.73;4.43;;;20.80;95.70;;;;;;5025040;28;20034;-60
2023/07/08 05:01:52;;;;;;;8.52;3.75;;;21.00;95.30;;;;;;5010104;28;20496;-60
2023/07/08 05:04:20;;;;;;;8.82;3.28;;;21.10;94.60;;;;;;5010224;28;20026;-60
2023/07/08 05:06:46;;;;;;;8.23;3.58;;;21.40;94.50;;;;;;5008754;28;20041;-60
2023/07/08 05:09:12;;;;;;;7.28;3.30;;;21.50;94.10;;;;;;5010231;28;20028;-60
2023/07/08 05:11:38;;;;;;;15.70;3.97;;;21.60;94.00;;;;;;5010054;28;20038;-60
2023/07/08 05:14:05;;;;;;;8.35;3.55;;;21.80;93.30;;;;;;5010234;28;20046;-60
2023/07/08 05:16:38;;;;;;;13.55;4.82;;;21.90;93.10;;;;;;5010254;28;20497;-60
2023/07/08 05:19:03;;;;;;;8.68;3.97;;;22.00;92.90;;;;;;5010214;28;20042;-60
2023/07/08 05:21:33;;;;;;;7.72;3.85;;;22.10;92.90;;;;;;5009972;28;20033;-60
2023/07/08 05:24:04;;;;;;;8.48;3.55;;;22.30;92.70;;;;;;5013756;28;20080;-60
2023/07/08 05:26:31;;;;;;;7.50;3.72;;;22.40;92.80;;;;;;5012301;28;20105;-60
2023/07/08 05:28:57;;;;;;;10.00;4.28;;;22.40;92.50;;;;;;5014335;28;20034;-60
2023/07/08 05:31:22;;;;;;;7.35;3.42;;;22.50;93.00;;;;;;5013508;28;20092;-60
2023/07/08 05:33:48;;;;;;;6.90;3.28;;;22.70;92.90;;;;;;5025738;28;20038;-60
2023/07/08 05:36:14;;;;;;;12.07;3.83;;;22.90;92.60;;;;;;5013291;28;20100;-60
2023/07/08 05:38:40;;;;;;;8.95;4.00;;;22.90;92.50;;;;;;5013766;28;20033;-60
2023/07/08 05:41:06;;;;;;;10.82;3.88;;;23.10;92.10;;;;;;5013264;28;20050;-61
2023/07/08 05:43:31;;;;;;;12.82;4.00;;;23.30;91.80;;;;;;5013530;28;20022;-61
2023/07/08 05:46:02;;;;;;;8.40;3.90;;;23.40;92.00;;;;;;5013419;28;20037;-66
2023/07/08 05:48:28;;;;;;;8.93;3.58;;;23.30;91.90;;;;;;5013614;28;20409;-61
2023/07/08 05:50:55;;;;;;;14.20;4.15;;;23.40;91.20;;;;;;5009618;28;20029;-62
2023/07/08 05:53:21;;;;;;;12.65;4.18;;;23.30;91.00;;;;;;5010627;28;20557;-62
2023/07/08 05:55:48;;;;;;;7.45;3.45;;;23.20;91.00;;;;;;5013600;28;20076;-63
2023/07/08 05:58:15;;;;;;;8.68;4.07;;;23.30;91.00;;;;;;5012317;28;20041;-62
2023/07/08 06:00:42;;;;;;;10.13;4.40;;;23.20;91.30;;;;;;5011981;28;20068;-63
2023/07/08 06:03:09;;;;;;;12.20;4.60;;;23.30;91.40;;;;;;5015082;28;20103;-61
2023/07/08 06:05:35;;;;;;;9.90;3.78;;;23.40;91.20;;;;;;5012280;28;20026;-63
2023/07/08 06:08:01;;;;;;;8.50;3.72;;;23.40;91.20;;;;;;5013094;28;20033;-62
2023/07/08 06:10:27;;;;;;;10.40;4.65;;;23.50;91.30;;;;;;5013041;28;20087;-62
2023/07/08 06:12:53;;;;;;;9.07;4.35;;;23.60;91.20;;;;;;5012477;28;20034;-61
2023/07/08 06:15:18;;;;;;;9.38;4.85;;;23.60;91.20;;;;;;5013395;28;20505;-62
2023/07/08 06:17:44;;;;;;;12.55;4.88;;;23.70;91.50;;;;;;5012868;28;20114;-61
2023/07/08 06:20:10;;;;;;;11.80;4.88;;;23.80;91.30;;;;;;5013154;28;20041;-61
2023/07/08 06:22:36;;;;;;;12.63;5.43;;;23.60;91.40;;;;;;5012219;28;20058;-64
2023/07/08 06:25:02;;;;;;;18.73;4.75;;;23.70;91.20;;;;;;5012867;28;20106;-65
2023/07/08 06:27:27;;;;;;;11.93;4.28;;;23.70;90.70;;;;;;5012766;28;20131;-60
2023/07/08 06:29:54;;;;;;;7.47;3.47;;;23.80;90.20;;;;;;5013181;28;20035;-61
2023/07/08 06:32:19;;;;;;;7.70;3.72;;;23.70;90.40;;;;;;5011655;28;20081;-61
2023/07/08 06:34:45;;;;;;;10.77;3.53;;;23.70;88.70;;;;;;5012714;28;20064;-61
2023/07/08 06:37:11;;;;;;;7.65;3.10;;;23.90;85.30;;;;;;5012798;28;20030;-60
2023/07/08 06:39:37;;;;;;;18.35;3.50;;;24.00;84.60;;;;;;5012588;28;20450;-60
2023/07/08 06:42:03;;;;;;;7.05;3.30;;;23.80;84.20;;;;;;5012330;28;20413;-60
2023/07/08 06:44:29;;;;;;;7.22;3.30;;;23.80;84.20;;;;;;5012585;28;20470;-60
2023/07/08 06:46:55;;;;;;;7.53;3.00;;;23.90;83.30;;;;;;5012524;28;20037;-59
2023/07/08 06:49:21;;;;;;;6.13;2.85;;;24.00;81.90;;;;;;5012665;28;20068;-59
2023/07/08 06:51:46;;;;;;;9.38;3.58;;;23.90;82.10;;;;;;5010548;28;20037;-60
2023/07/08 06:54:12;;;;;;;7.80;2.88;;;23.70;82.70;;;;;;5011074;28;20066;-59
2023/07/08 06:56:39;;;;;;;8.25;2.70;;;23.70;82.80;;;;;;5012033;28;20045;-60
2023/07/08 06:59:06;;;;;;;6.43;2.75;;;23.70;83.00;;;;;;5012349;28;20097;-59
2023/07/08 07:01:32;;;;;;;7.35;2.72;;;23.70;83.30;;;;;;5011493;28;20065;-59
2023/07/08 07:03:59;;;;;;;8.82;3.05;;;23.70;83.10;;;;;;5011947;28;20065;-59
2023/07/08 07:06:25;;;;;;;6.55;2.70;;;23.70;83.00;;;;;;5011767;28;20030;-59
2023/07/08 07:08:50;;;;;;;6.55;2.55;;;23.90;82.90;;;;;;5012126;28;20029;-68
2023/07/08 07:11:16;;;;;;;5.60;2.13;;;23.80;82.40;;;;;;5010957;28;20082;-69
2023/07/08 07:13:45;;;;;;;7.38;2.95;;;24.00;82.10;;;;;;5015377;28;20080;-69
2023/07/08 07:16:11;;;;;;;8.75;2.42;;;24.00;81.50;;;;;;4993505;28;20034;-69
2023/07/08 07:18:36;;;;;;;4.80;2.03;;;24.20;81.90;;;;;;5010800;28;20036;-74
2023/07/08 07:21:02;;;;;;;6.93;2.88;;;24.20;81.20;;;;;;5011397;28;20033;-70
2023/07/08 07:23:28;;;;;;;6.38;2.40;;;24.30;80.70;;;;;;5023339;28;20029;-70
2023/07/08 07:25:54;;;;;;;6.10;2.75;;;24.50;80.80;;;;;;5026864;28;20069;-70
2023/07/08 07:28:19;;;;;;;6.07;2.60;;;24.60;80.00;;;;;;5011905;28;20022;-70
2023/07/08 07:30:47;;;;;;;6.40;2.80;;;24.70;80.10;;;;;;5011912;28;20109;-70
2023/07/08 07:33:13;;;;;;;4.38;1.98;;;24.70;80.40;;;;;;5011327;28;20042;-68
2023/07/08 07:35:44;;;;;;;4.32;2.08;;;24.80;80.90;;;;;;5010277;28;20029;-69
2023/07/08 07:38:10;;;;;;;9.60;2.83;;;24.70;82.40;;;;;;5011301;28;20042;-69
2023/07/08 07:40:35;;;;;;;4.55;1.75;;;24.90;81.90;;;;;;5011748;28;20371;-68
2023/07/08 07:43:01;;;;;;;3.90;1.77;;;24.90;83.50;;;;;;5010701;28;20030;-69
2023/07/08 07:45:27;;;;;;;6.13;1.83;;;24.90;84.10;;;;;;5010963;28;20402;-70
2023/07/08 07:47:53;;;;;;;13.93;2.83;;;25.10;85.40;;;;;;5011098;28;20038;-70
2023/07/08 07:50:19;;;;;;;9.75;2.33;;;25.10;85.40;;;;;;5010476;28;20472;-70
2023/07/08 07:52:45;;;;;;;5.60;2.58;;;25.10;85.70;;;;;;5009082;28;20066;-70
2023/07/08 07:55:11;;;;;;;7.68;2.58;;;25.00;85.70;;;;;;5011127;28;20060;-70
2023/07/08 07:57:36;;;;;;;6.53;2.33;;;24.90;85.00;;;;;;5009005;28;20034;-70
2023/07/08 08:00:03;;;;;;;3.80;1.98;;;25.00;85.80;;;;;;5014592;28;20117;-70
2023/07/08 08:02:29;;;;;;;8.57;2.20;;;25.10;85.90;;;;;;4992635;28;20474;-69
2023/07/08 08:04:54;;;;;;;4.15;1.92;;;25.00;87.00;;;;;;5009947;28;20068;-69
2023/07/08 08:07:20;;;;;;;6.07;2.33;;;24.80;87.00;;;;;;5011061;28;20026;-69
2023/07/08 08:09:46;;;;;;;7.18;2.78;;;24.70;88.40;;;;;;5011198;28;20112;-69
2023/07/08 08:12:12;;;;;;;6.07;2.20;;;24.90;88.60;;;;;;5010467;28;20042;-70
2023/07/08 08:14:38;;;;;;;6.38;2.17;;;25.00;89.00;;;;;;5011064;28;20030;-70
2023/07/08 08:17:05;;;;;;;4.35;2.00;;;25.10;88.80;;;;;;5010877;28;20119;-70
2023/07/08 08:19:31;;;;;;;6.63;2.15;;;25.40;88.50;;;;;;5011036;28;20370;-70
2023/07/08 08:21:57;;;;;;;6.45;2.40;;;25.40;89.70;;;;;;5008818;28;20469;-70
2023/07/08 08:24:23;;;;;;;4.85;2.00;;;25.30;89.80;;;;;;5010628;28;20054;-70
2023/07/08 08:26:49;;;;;;;5.60;2.22;;;25.50;90.00;;;;;;5010716;28;20041;-70
2023/07/08 08:29:15;;;;;;;5.63;2.05;;;25.20;90.20;;;;;;5011016;28;20109;-70
2023/07/08 08:31:40;;;;;;;5.03;1.92;;;25.30;90.40;;;;;;5005840;28;20039;-70
2023/07/08 08:34:06;;;;;;;5.18;2.22;;;25.50;90.40;;;;;;5009070;28;20131;-70
2023/07/08 08:36:32;;;;;;;5.15;1.92;;;25.20;90.60;;;;;;5010533;28;20553;-70
2023/07/08 08:38:57;;;;;;;7.88;1.92;;;25.40;90.80;;;;;;5010836;28;20030;-70
2023/07/08 08:41:33;;;;;;;4.70;2.20;;;25.60;90.50;;;;;;5010283;28;20116;-70
2023/07/08 08:44:01;;;;;;;5.07;2.13;;;25.70;90.60;;;;;;5010509;28;20046;-69
2023/07/08 08:46:52;;;;;;;6.18;1.83;;;25.90;90.50;;;;;;4989685;28;20128;-69
2023/07/08 08:49:27;;;;;;;5.13;1.42;;;26.00;90.90;;;;;;5010874;28;20064;-70
2023/07/08 08:51:53;;;;;;;4.13;1.67;;;26.40;90.40;;;;;;5008559;28;20072;-69
2023/07/08 08:54:19;;;;;;;4.45;1.35;;;26.40;90.90;;;;;;4992938;28;20101;-66
2023/07/08 08:57:32;;;;;;;6.32;2.00;;;26.40;91.10;;;;;;5010406;28;20034;-59
2023/07/08 08:59:59;;;;;;;4.35;1.83;;;26.70;91.10;;;;;;5009034;28;20596;-59
2023/07/08 09:02:47;;;;;;;2.97;1.05;;;26.70;91.10;;;;;;5025232;28;20497;-63
2023/07/08 09:05:14;;;;;;;6.95;1.95;;;26.80;91.00;;;;;;5013562;28;20101;-60
2023/07/08 09:08:00;;;;;;;3.45;1.38;;;27.00;90.70;;;;;;5009842;28;20025;-58
2023/07/08 09:11:00;;;;;;;4.47;1.60;;;26.90;90.60;;;;;;5010207;28;20038;-59
2023/07/08 09:13:37;;;;;;;4.57;2.13;;;27.20;89.80;;;;;;5000454;28;20105;-58
2023/07/08 09:16:47;;;;;;;4.50;1.63;;;27.30;89.30;;;;;;5014413;28;20123;-63
2023/07/08 09:19:22;;;;;;;3.35;1.48;;;27.30;88.90;;;;;;5007731;28;20041;-59
2023/07/08 09:22:20;;;;;;;5.38;1.92;;;27.50;88.50;;;;;;5008844;28;20493;-58
2023/07/08 09:25:23;;;;;;;3.63;1.60;;;27.60;88.90;;;;;;5007992;28;20038;-56
2023/07/08 09:27:49;;;;;;;43.85;2.72;;;27.60;89.40;;;;;;5003486;28;20058;-60
2023/07/08 09:30:20;;;;;;;3.70;1.85;;;27.50;90.00;;;;;;5013624;28;20056;-59
2023/07/08 09:32:47;;;;;;;5.28;1.67;;;27.70;89.00;;;;;;4991332;28;20038;-60
2023/07/08 09:35:28;;;;;;;4.38;1.60;;;27.70;89.10;;;;;;5011427;28;20077;-60
2023/07/08 09:37:55;;;;;;;5.40;1.65;;;27.80;88.50;;;;;;5006369;28;20040;-60
2023/07/08 09:40:21;;;;;;;4.88;1.85;;;28.00;88.40;;;;;;5012806;28;20040;-60
2023/07/08 09:42:52;;;;;;;7.00;1.90;;;28.20;87.90;;;;;;5009763;28;20046;-59
2023/07/08 09:45:24;;;;;;;4.45;1.38;;;28.00;87.70;;;;;;5001214;28;20029;-60
2023/07/08 09:47:56;;;;;;;5.15;2.20;;;28.10;87.70;;;;;;5010274;28;20018;-60
2023/07/08 09:50:31;;;;;;;3.50;1.70;;;28.20;87.90;;;;;;4986665;28;20040;-61
2023/07/08 09:53:00;;;;;;;10.95;1.90;;;28.20;87.60;;;;;;4993055;28;20045;-61
2023/07/08 09:55:28;;;;;;;5.47;2.10;;;28.40;87.40;;;;;;5004953;28;20121;-58
2023/07/08 09:57:58;;;;;;;4.20;1.75;;;28.40;86.50;;;;;;4998368;28;20033;-60
2023/07/08 10:00:42;;;;;;;5.35;2.05;;;28.50;86.20;;;;;;4998779;28;20037;-60
2023/07/08 10:03:31;;;;;;;4.80;1.55;;;28.60;86.40;;;;;;5012687;28;20034;-58
2023/07/08 10:06:02;;;;;;;5.25;1.73;;;28.70;85.90;;;;;;5009431;28;20065;-60
2023/07/08 10:08:41;;;;;;;5.30;1.85;;;28.70;85.60;;;;;;5030212;22;20136;-62
2023/07/08 10:11:30;;;;;;;5.82;1.88;;;29.00;85.40;;;;;;5011515;28;20064;-63
2023/07/08 10:14:20;;;;;;;4.95;1.80;;;29.20;85.80;;;;;;5030557;28;20053;-60
2023/07/08 10:16:46;;;;;;;3.13;1.48;;;28.90;85.70;;;;;;5018498;28;20520;-61
2023/07/08 10:19:16;;;;;;;5.15;2.13;;;29.00;85.40;;;;;;5031627;28;20065;-61
2023/07/08 10:22:19;;;;;;;5.97;2.05;;;29.00;86.20;;;;;;5028327;28;20112;-61
2023/07/08 10:25:02;;;;;;;3.85;1.73;;;29.00;85.70;;;;;;5017147;28;20419;-61
2023/07/08 10:27:51;;;;;;;6.72;1.90;;;29.10;85.90;;;;;;5032799;28;20021;-61
2023/07/08 10:30:29;;;;;;;6.00;2.00;;;29.30;84.60;;;;;;5015204;28;20064;-60
2023/07/08 10:33:13;;;;;;;3.97;2.08;;;29.30;84.70;;;;;;5011492;28;20041;-60
2023/07/08 10:36:17;;;;;;;4.60;2.17;;;29.40;85.00;;;;;;5032002;28;20033;-62
2023/07/08 10:39:36;;;;;;;3.92;1.75;;;29.20;84.30;;;;;;5009514;28;20445;-61
2023/07/08 10:42:41;;;;;;;5.25;2.53;;;29.30;84.10;;;;;;5029603;28;20037;-61
2023/07/08 10:45:45;;;;;;;3.92;1.95;;;29.50;85.60;;;;;;5032013;28;20038;-61
2023/07/08 10:48:56;;;;;;;5.60;1.40;;;29.80;84.80;;;;;;5028284;28;20033;-61
2023/07/08 10:51:55;;;;;;;8.35;1.42;;;30.10;83.40;;;;;;5036565;28;20128;-61
2023/07/08 10:54:54;;;;;;;5.20;1.88;;;30.20;83.30;;;;;;5008723;28;20393;-61
2023/07/08 10:57:35;;;;;;;5.07;1.73;;;30.30;81.90;;;;;;5031943;28;20363;-60
2023/07/08 11:00:34;;;;;;;7.22;2.13;;;30.10;82.40;;;;;;5031871;28;20075;-62
2023/07/08 11:03:39;;;;;;;3.85;1.65;;;30.30;81.80;;;;;;5021859;28;20030;-63
2023/07/08 11:06:49;;;;;;;6.47;1.98;;;30.20;80.80;;;;;;5017291;28;20033;-61
2023/07/08 11:09:34;;;;;;;4.68;1.90;;;30.20;81.70;;;;;;5028706;28;20102;-60
2023/07/08 11:12:30;;;;;;;4.72;2.30;;;30.30;81.60;;;;;;5009252;28;20030;-59
2023/07/08 11:15:36;;;;;;;4.75;2.30;;;30.00;80.60;;;;;;5031114;28;20136;-61
2023/07/08 11:18:34;;;;;;;4.72;1.70;;;30.00;81.40;;;;;;5030317;28;20044;-59
2023/07/08 11:21:21;;;;;;;5.78;2.05;;;30.20;80.80;;;;;;5027703;28;20044;-61
2023/07/08 11:23:58;;;;;;;5.63;2.00;;;30.40;80.70;;;;;;5018156;28;20083;-60
2023/07/08 11:26:41;;;;;;;3.15;1.33;;;30.40;80.50;;;;;;5007240;28;20489;-60
2023/07/08 11:29:22;;;;;;;7.25;1.73;;;30.60;80.80;;;;;;5011866;28;20220;-61
2023/07/08 11:31:49;;;;;;;3.55;2.22;;;30.70;80.20;;;;;;4999536;28;20050;-61
2023/07/08 11:34:18;;;;;;;5.22;2.95;;;31.30;79.30;;;;;;5030123;28;20025;-61
2023/07/08 11:36:46;;;;;;;7.30;2.17;;;31.20;77.40;;;;;;5026476;28;20030;-60
2023/07/08 11:39:38;;;;;;;4.80;1.98;;;31.20;79.20;;;;;;5012613;28;20034;-58
2023/07/08 11:42:34;;;;;;;4.22;1.65;;;31.20;76.10;;;;;;5031204;28;20040;-59
2023/07/08 11:45:00;;;;;;;4.20;2.00;;;31.40;77.80;;;;;;5030720;28;20029;-62
2023/07/08 11:47:45;;;;;;;9.20;2.10;;;31.20;76.60;;;;;;5013529;28;20477;-61
2023/07/08 11:50:36;;;;;;;5.65;2.00;;;31.60;76.50;;;;;;5013951;28;20044;-62
2023/07/08 11:53:38;;;;;;;4.50;1.63;;;31.80;75.70;;;;;;5013530;28;20041;-61
2023/07/08 11:56:20;;;;;;;5.25;2.28;;;32.30;76.00;;;;;;5034555;28;20069;-60
2023/07/08 11:58:49;;;;;;;4.30;1.85;;;32.20;74.40;;;;;;5031051;28;20029;-61
2023/07/08 12:01:31;;;;;;;3.30;1.63;;;31.70;74.20;;;;;;5003608;28;20037;-76
2023/07/08 12:04:09;;;;;;;5.80;1.90;;;32.10;73.50;;;;;;5028968;28;20041;-72
2023/07/08 12:06:35;;;;;;;4.93;1.58;;;32.60;72.10;;;;;;5030832;28;20030;-72
2023/07/08 12:09:20;;;;;;;4.05;1.83;;;32.20;72.50;;;;;;5030279;28;20044;-72
2023/07/08 12:11:59;;;;;;;5.68;1.90;;;32.50;71.80;;;;;;5026429;28;20373;-71
2023/07/08 12:14:27;;;;;;;5.55;1.90;;;32.60;71.30;;;;;;5011640;28;20036;-72
2023/07/08 12:16:53;;;;;;;3.60;1.40;;;32.60;71.70;;;;;;5013408;28;20044;-73
2023/07/08 12:19:22;;;;;;;7.25;2.55;;;33.00;71.40;;;;;;5030334;28;20040;-72
2023/07/08 12:21:48;;;;;;;5.15;1.90;;;32.20;69.80;;;;;;5007021;28;20116;-76
2023/07/08 12:24:15;;;;;;;5.68;1.70;;;33.10;69.40;;;;;;5015896;28;20053;-75
2023/07/08 12:26:41;;;;;;;3.65;1.73;;;33.80;67.70;;;;;;5012964;28;20183;-71
2023/07/08 12:29:15;;;;;;;4.47;1.85;;;33.80;67.60;;;;;;5029863;28;20040;-71
2023/07/08 12:31:42;;;;;;;4.55;1.92;;;33.90;67.50;;;;;;5012926;28;20064;-72
2023/07/08 12:34:16;;;;;;;4.50;1.85;;;34.40;67.70;;;;;;5010264;28;20189;-72
2023/07/08 12:36:44;;;;;;;3.83;1.77;;;34.50;67.10;;;;;;5024767;28;20137;-71
2023/07/08 12:39:15;;;;;;;4.32;1.70;;;34.00;66.70;;;;;;5010125;28;20064;-71
2023/07/08 12:41:42;;;;;;;4.05;1.90;;;33.30;67.80;;;;;;5012982;28;20025;-71
2023/07/08 12:44:26;;;;;;;2.88;1.50;;;33.60;68.30;;;;;;5012012;28;20098;-71
2023/07/08 12:46:54;;;;;;;4.65;1.58;;;33.90;67.20;;;;;;5013809;28;20366;-71
2023/07/08 12:49:23;;;;;;;4.15;1.73;;;33.40;68.20;;;;;;5010340;28;20389;-72
2023/07/08 12:51:50;;;;;;;4.65;2.17;;;33.60;68.00;;;;;;5006766;28;20040;-71
2023/07/08 12:54:16;;;;;;;6.22;1.42;;;33.60;68.30;;;;;;5014108;28;20034;-76
2023/07/08 12:56:46;;;;;;;6.43;1.77;;;33.80;66.00;;;;;;5030167;28;20021;-73
2023/07/08 12:59:18;;;;;;;5.40;1.92;;;34.60;65.70;;;;;;5029658;28;20042;-70
2023/07/08 13:01:47;;;;;;;2.40;1.15;;;34.60;65.50;;;;;;5012393;28;20045;-71
2023/07/08 13:04:13;;;;;;;3.50;1.63;;;34.80;64.70;;;;;;5012032;28;20521;-72
2023/07/08 13:06:42;;;;;;;5.82;2.17;;;34.60;64.30;;;;;;4995861;28;20374;-71
2023/07/08 13:09:42;;;;;;;6.50;1.65;;;34.10;64.50;;;;;;5012297;28;20033;-72